createdAt,value
2023-03-01T00:00:12.371Z,52.00
2023-03-01T00:05:15.690Z,52.15
2023-03-01T00:10:19.481Z,51.15
2023-03-01T00:15:26.621Z,51.09
2023-03-01T00:20:30.065Z,51.13
2023-03-01T00:25:33.552Z,51.67
2023-03-01T00:30:38.507Z,52.04
2023-03-01T00:35:42.307Z,51.10
2023-03-01T00:40:45.823Z,51.32
2023-03-01T00:45:50.831Z,52.36
2023-03-01T00:50:54.279Z,52.83
2023-03-01T00:55:59.151Z,52.44
2023-03-01T01:01:24.176Z,51.46
2023-03-01T01:06:30.756Z,53.03
2023-03-01T01:11:37.630Z,54.71
2023-03-01T01:17:04.727Z,55.31
2023-03-01T01:22:08.530Z,56.13
2023-03-01T01:27:15.062Z,56.16
2023-03-01T01:32:27.095Z,56.25
2023-03-01T01:37:33.056Z,56.46
2023-03-01T01:42:37.570Z,55.75
2023-03-01T01:47:42.404Z,55.24
2023-03-01T01:52:47.455Z,57.24
2023-03-01T01:57:55.672Z,56.16
2023-03-01T02:03:04.279Z,57.10
2023-03-01T02:08:13.426Z,56.00
2023-03-01T02:13:17.245Z,55.51
2023-03-01T02:18:25.595Z,56.34
2023-03-01T02:23:29.654Z,56.09
2023-03-01T02:28:37.426Z,56.28
2023-03-01T02:33:42.099Z,55.35
2023-03-01T02:38:46.515Z,55.47
2023-03-01T02:43:51.574Z,56.26
2023-03-01T02:55:58.783Z,55.85
2023-03-01T03:01:04.913Z,56.59
2023-03-01T03:06:08.885Z,56.77
2023-03-01T03:11:54.591Z,55.39
2023-03-01T03:18:37.850Z,55.68
2023-03-01T04:14:55.236Z,56.78
2023-03-01T04:20:36.141Z,55.67
2023-03-01T04:26:02.213Z,55.40
2023-03-01T04:31:18.542Z,56.33
2023-03-01T04:36:57.919Z,55.09
2023-03-01T05:02:56.301Z,57.06
2023-03-01T05:14:57.891Z,55.45
2023-03-01T05:20:14.209Z,56.88
2023-03-01T05:25:43.930Z,56.75
2023-03-01T05:30:47.433Z,56.96
2023-03-01T05:36:01.782Z,56.72
2023-03-01T05:41:05.654Z,57.18
2023-03-01T05:46:14.449Z,57.09
2023-03-01T05:51:19.735Z,56.43
2023-03-01T05:56:24.612Z,57.19
2023-03-01T06:01:30.836Z,56.58
2023-03-01T06:06:40.631Z,56.39
2023-03-01T06:11:53.613Z,56.68
2023-03-01T06:16:57.412Z,56.73
2023-03-01T06:22:03.363Z,56.99
2023-03-01T06:27:10.492Z,56.80
2023-03-01T06:32:14.057Z,56.59
2023-03-01T06:37:18.993Z,56.63
2023-03-01T06:42:22.662Z,56.24
2023-03-01T06:47:27.446Z,56.71
2023-03-01T06:52:40.115Z,56.78
2023-03-01T06:57:47.299Z,56.39
2023-03-01T07:03:00.961Z,56.78
2023-03-01T07:08:07.859Z,56.77
2023-03-01T07:13:11.263Z,56.68
2023-03-01T07:18:14.666Z,56.53
2023-03-01T07:23:19.635Z,60.01
2023-03-01T07:28:24.346Z,57.43
2023-03-01T07:33:28.111Z,56.55
2023-03-01T07:38:36.485Z,56.15
2023-03-01T07:43:40.030Z,56.27
2023-03-01T07:48:43.602Z,56.05
2023-03-01T07:53:49.504Z,55.38
2023-03-01T07:58:53.083Z,55.03
2023-03-01T08:03:56.640Z,55.11
2023-03-01T08:09:04.165Z,54.23
2023-03-01T08:14:08.471Z,54.41
2023-03-01T08:19:15.846Z,53.91
2023-03-01T08:24:24.343Z,54.16
2023-03-01T08:29:28.194Z,54.09
2023-03-01T08:34:37.031Z,53.47
2023-03-01T08:39:50.543Z,53.53
2023-03-01T08:44:57.831Z,53.08
2023-03-01T08:50:01.736Z,53.18
2023-03-01T08:55:08.932Z,53.38
2023-03-01T09:00:15.890Z,53.12
2023-03-01T09:05:20.397Z,53.02
2023-03-01T09:10:26.848Z,52.56
2023-03-01T09:15:32.407Z,52.58
2023-03-01T09:20:47.000Z,51.83
2023-03-01T09:25:51.973Z,51.44
2023-03-01T09:30:55.503Z,51.83
2023-03-01T09:36:00.454Z,51.45
2023-03-01T09:41:13.889Z,51.13
2023-03-01T09:46:20.776Z,51.03
2023-03-01T09:51:29.531Z,50.26
2023-03-01T09:56:38.651Z,49.85
2023-03-01T10:01:48.571Z,50.02
2023-03-01T10:06:56.516Z,50.58
2023-03-01T10:12:04.839Z,49.88
2023-03-01T10:17:22.267Z,49.49
2023-03-01T10:22:30.142Z,49.45
2023-03-01T10:27:45.482Z,49.31
2023-03-01T10:32:51.553Z,48.47
2023-03-01T10:38:06.768Z,48.21
2023-03-01T10:43:14.508Z,47.87
2023-03-01T10:48:20.507Z,46.79
2023-03-01T10:53:27.981Z,46.42
2023-03-01T10:58:34.373Z,46.05
2023-03-01T11:03:39.830Z,45.98
2023-03-01T11:08:45.183Z,45.90
2023-03-01T11:13:58.661Z,46.64
2023-03-01T11:19:18.608Z,44.33
2023-03-01T11:24:26.639Z,44.67
2023-03-01T11:29:48.586Z,44.48
2023-03-01T11:34:57.404Z,44.08
2023-03-01T11:40:10.300Z,43.82
2023-03-01T11:45:15.628Z,43.21
2023-03-01T11:50:28.438Z,43.22
2023-03-01T11:55:48.925Z,45.08
2023-03-01T12:01:20.913Z,43.75
2023-03-01T12:06:45.296Z,41.95
2023-03-01T12:12:05.567Z,42.92
2023-03-01T12:17:33.523Z,42.70
2023-03-01T12:22:46.668Z,43.47
2023-03-01T12:28:14.843Z,43.82
2023-03-01T12:33:55.811Z,41.98
2023-03-01T12:39:34.201Z,41.68
2023-03-01T12:45:17.480Z,42.00
2023-03-01T12:50:54.546Z,40.67
2023-03-01T12:56:10.307Z,40.95
2023-03-01T13:01:25.192Z,41.11
2023-03-01T13:06:43.226Z,41.05
2023-03-01T13:11:48.716Z,40.43
2023-03-01T13:16:53.124Z,39.81
2023-03-01T13:21:59.240Z,39.91
2023-03-01T13:27:26.064Z,40.95
2023-03-01T13:32:48.814Z,40.14
2023-03-01T13:37:54.554Z,40.01
2023-03-01T13:43:05.708Z,39.80
2023-03-01T13:48:20.918Z,41.60
2023-03-01T13:53:29.090Z,39.89
2023-03-01T13:58:37.060Z,39.20
2023-03-01T14:03:44.527Z,40.04
2023-03-01T14:08:54.149Z,38.89
2023-03-01T14:14:16.254Z,40.28
2023-03-01T14:19:33.126Z,38.84
2023-03-01T14:24:43.341Z,38.72
2023-03-01T14:29:58.196Z,40.28
2023-03-01T14:35:03.840Z,38.45
2023-03-01T14:40:24.150Z,39.83
2023-03-01T14:45:31.635Z,38.48
2023-03-01T14:50:38.596Z,38.86
2023-03-01T14:55:48.216Z,39.05
2023-03-01T15:00:54.863Z,38.98
2023-03-01T15:05:59.322Z,38.54
2023-03-01T15:11:09.226Z,38.25
2023-03-01T15:16:15.127Z,38.14
2023-03-01T15:21:24.439Z,38.26
2023-03-01T15:26:33.165Z,38.70
2023-03-01T15:31:40.629Z,37.75
2023-03-01T15:36:46.861Z,38.50
2023-03-01T15:41:52.496Z,38.03
2023-03-01T15:46:56.779Z,37.64
2023-03-01T15:52:00.558Z,38.28
2023-03-01T15:57:06.225Z,38.50
2023-03-01T16:02:12.300Z,38.21
2023-03-01T16:07:16.273Z,38.44
2023-03-01T16:12:22.423Z,38.85
2023-03-01T16:17:26.941Z,38.61
2023-03-01T16:22:30.799Z,38.55
2023-03-01T16:27:36.959Z,39.13
2023-03-01T16:32:41.234Z,39.07
2023-03-01T16:37:46.109Z,38.95
2023-03-01T16:42:52.294Z,39.70
2023-03-01T16:47:56.433Z,40.25
2023-03-01T16:53:00.859Z,39.93
2023-03-01T16:58:07.489Z,40.08
2023-03-01T17:03:11.723Z,40.16
2023-03-01T17:08:16.012Z,40.71
2023-03-01T17:13:22.809Z,40.80
2023-03-01T17:18:27.092Z,40.85
2023-03-01T17:23:31.731Z,41.20
2023-03-01T17:28:38.520Z,41.25
2023-03-01T17:33:43.099Z,41.15
2023-03-01T17:39:52.926Z,42.87
2023-03-01T17:52:00.565Z,41.65
2023-03-01T17:57:04.304Z,41.75
2023-03-01T18:02:08.235Z,41.83
2023-03-01T18:07:18.131Z,41.99
2023-03-01T18:12:21.715Z,41.68
2023-03-01T18:17:26.785Z,42.23
2023-03-01T18:22:35.002Z,42.10
2023-03-01T18:27:38.667Z,42.30
2023-03-01T18:32:42.562Z,42.53
2023-03-01T18:37:47.599Z,42.30
2023-03-01T18:42:54.059Z,42.68
2023-03-01T18:47:57.679Z,43.02
2023-03-01T18:53:03.906Z,43.18
2023-03-01T18:58:07.728Z,43.09
2023-03-01T19:03:11.546Z,43.29
2023-03-01T19:08:16.571Z,43.35
2023-03-01T19:13:20.089Z,43.56
2023-03-01T19:18:23.521Z,43.66
2023-03-01T19:23:28.883Z,43.61
2023-03-01T19:28:32.435Z,44.02
2023-03-01T19:33:36.532Z,43.85
2023-03-01T19:38:43.546Z,44.27
2023-03-01T19:43:47.409Z,44.27
2023-03-01T19:48:53.408Z,44.19
2023-03-01T19:53:58.300Z,44.44
2023-03-01T19:59:04.320Z,44.60
2023-03-01T20:04:09.049Z,44.65
2023-03-01T20:09:21.488Z,44.68
2023-03-01T20:14:25.764Z,44.93
2023-03-01T20:19:29.189Z,45.13
2023-03-01T20:24:34.044Z,45.39
2023-03-01T20:29:37.619Z,45.72
2023-03-01T20:34:41.088Z,45.72
2023-03-01T20:39:45.996Z,45.50
2023-03-01T20:44:49.522Z,46.13
2023-03-01T20:49:53.343Z,46.49
2023-03-01T20:55:00.328Z,46.70
2023-03-01T21:00:13.238Z,46.50
2023-03-01T21:05:16.654Z,46.41
2023-03-01T21:10:22.109Z,46.81
2023-03-01T21:15:30.714Z,46.65
2023-03-01T21:20:34.302Z,46.71
2023-03-01T21:25:39.231Z,47.46
2023-03-01T21:30:43.377Z,47.19
2023-03-01T21:35:46.977Z,47.38
2023-03-01T21:40:51.863Z,47.41
2023-03-01T21:45:55.288Z,47.91
2023-03-01T21:50:59.622Z,48.02
2023-03-01T21:56:05.513Z,48.08
2023-03-01T22:01:11.680Z,48.30
2023-03-01T22:06:22.902Z,48.37
2023-03-01T22:11:28.869Z,48.32
2023-03-01T22:16:34.398Z,48.86
2023-03-01T22:21:40.087Z,48.91
2023-03-01T22:26:46.904Z,48.99
2023-03-01T22:31:51.099Z,49.35
2023-03-01T22:36:54.944Z,49.31
2023-03-01T22:41:59.913Z,50.08
2023-03-01T22:47:03.332Z,50.51
2023-03-01T22:52:06.858Z,50.32
2023-03-01T22:57:12.337Z,50.01
2023-03-01T23:02:15.948Z,50.58
2023-03-01T23:07:19.381Z,51.42
2023-03-01T23:12:24.129Z,49.71
2023-03-01T23:17:27.619Z,50.49
2023-03-01T23:22:31.862Z,50.60
2023-03-01T23:27:38.792Z,49.99
2023-03-01T23:32:42.187Z,50.81
2023-03-01T23:37:46.608Z,51.44
2023-03-01T23:42:51.348Z,51.14
2023-03-01T23:47:55.601Z,51.53
2023-03-01T23:52:59.273Z,51.12
2023-03-01T23:58:04.317Z,51.46
